Angle Inlet, Minnesota
Current Conditions -  °F | °C
As of 6:14 PM on Wednesday 28 Jan 2015 (Local Time) from KFGN Reporting Station
Haze Haze  
Wind Chill: 23°   Ceiling: 900
Heat Index: 28°   Visibility: 4mi
Dew Point: 28°   Wind: 5mph
Humidity: 100%   Direction: 310°NW
Pressure: 29.83"   Gusts: NA
Location:  49.35°N, 95.08°W
Report Text: KFGN 290014Z AUTO 31004KT 4SM BR OVC009 M02/M02 A2983 RMK AO2
Loading
Personal Weather Stations






























Interactive Weather Map New forecast layout! Learn more

10-Day Weather Forecast

Advertisements
Track Severe Weather on mobile